createdAt,value
2017-08-28T00:02:15.148Z,88.60
2017-08-28T00:04:42.765Z,88.21
2017-08-28T00:07:10.360Z,88.46
2017-08-28T00:09:38.304Z,88.61
2017-08-28T00:12:06.062Z,88.93
2017-08-28T00:14:33.658Z,88.74
2017-08-28T00:17:01.283Z,89.11
2017-08-28T00:19:28.864Z,89.09
2017-08-28T00:21:56.479Z,88.85
2017-08-28T00:24:24.110Z,89.22
2017-08-28T00:26:52.041Z,88.92
2017-08-28T00:29:19.654Z,89.00
2017-08-28T00:31:47.272Z,88.82
2017-08-28T00:34:15.008Z,89.42
2017-08-28T00:36:42.607Z,89.38
2017-08-28T00:39:10.381Z,89.28
2017-08-28T00:41:37.987Z,89.53
2017-08-28T00:44:06.296Z,89.66
2017-08-28T00:46:34.024Z,89.62
2017-08-28T00:49:01.638Z,89.55
2017-08-28T00:51:29.263Z,89.80
2017-08-28T00:53:56.868Z,89.92
2017-08-28T00:56:24.525Z,90.12
2017-08-28T00:58:52.141Z,90.09
2017-08-28T01:01:19.776Z,90.17
2017-08-28T01:03:47.375Z,90.10
2017-08-28T01:06:15.541Z,90.09
2017-08-28T01:08:43.161Z,90.35
2017-08-28T01:11:10.836Z,90.15
2017-08-28T01:13:38.585Z,90.34
2017-08-28T01:16:06.183Z,90.53
2017-08-28T01:18:33.802Z,90.83
2017-08-28T01:21:01.438Z,90.69
2017-08-28T01:23:29.193Z,90.80
2017-08-28T01:25:56.767Z,90.58
2017-08-28T01:28:24.811Z,90.57
2017-08-28T01:30:52.425Z,90.14
2017-08-28T01:33:20.053Z,90.26
2017-08-28T01:35:47.700Z,90.08
2017-08-28T01:38:15.408Z,89.70
2017-08-28T01:40:43.118Z,90.18
2017-08-28T01:43:10.722Z,90.00
2017-08-28T01:45:38.360Z,89.80
2017-08-28T01:48:05.996Z,89.72
2017-08-28T01:50:33.980Z,89.46
2017-08-28T01:53:01.686Z,89.53
2017-08-28T01:55:29.290Z,89.34
2017-08-28T01:57:56.924Z,89.64
2017-08-28T02:00:24.570Z,89.69
2017-08-28T02:02:52.306Z,89.43
2017-08-28T02:05:19.905Z,89.79
2017-08-28T02:07:47.790Z,89.98
2017-08-28T02:10:15.388Z,90.28
2017-08-28T02:12:42.973Z,90.16
2017-08-28T02:15:10.597Z,90.39
2017-08-28T02:17:38.176Z,90.65
2017-08-28T02:20:05.799Z,90.49
2017-08-28T02:22:33.396Z,90.83
2017-08-28T02:25:00.992Z,91.02
2017-08-28T02:27:28.599Z,90.96
2017-08-28T02:29:56.541Z,91.15
2017-08-28T02:32:24.150Z,91.17
2017-08-28T02:34:51.886Z,91.24
2017-08-28T02:37:19.519Z,91.54
2017-08-28T02:39:47.127Z,91.59
2017-08-28T02:42:14.735Z,91.88
2017-08-28T02:44:42.343Z,92.05
2017-08-28T02:47:09.965Z,92.12
2017-08-28T02:49:37.619Z,91.93
2017-08-28T02:52:05.764Z,92.04
2017-08-28T02:54:33.376Z,92.17
2017-08-28T02:57:00.975Z,92.44
2017-08-28T02:59:28.592Z,92.39
2017-08-28T03:01:56.217Z,92.27
2017-08-28T03:04:23.838Z,92.07
2017-08-28T03:06:51.442Z,92.08
2017-08-28T03:09:19.057Z,92.18
2017-08-28T03:11:46.707Z,92.06
2017-08-28T03:14:14.633Z,92.10
2017-08-28T03:16:42.233Z,92.04
2017-08-28T03:19:09.852Z,92.06
2017-08-28T03:24:11.469Z,92.12
2017-08-28T03:26:39.086Z,91.99
2017-08-28T03:29:06.677Z,92.15
2017-08-28T03:31:34.325Z,92.02
2017-08-28T03:34:01.937Z,91.92
2017-08-28T03:36:29.562Z,91.87
2017-08-28T03:38:57.156Z,92.03
2017-08-28T03:41:25.172Z,91.99
2017-08-28T03:43:52.773Z,91.88
2017-08-28T03:46:20.375Z,91.97
2017-08-28T03:48:47.976Z,91.76
2017-08-28T03:51:15.566Z,91.63
2017-08-28T03:53:43.182Z,91.31
2017-08-28T03:56:10.794Z,91.49
2017-08-28T03:58:38.462Z,91.47
2017-08-28T04:01:06.075Z,91.77
2017-08-28T04:03:33.680Z,91.60
2017-08-28T04:06:01.429Z,91.77
2017-08-28T04:08:29.115Z,91.78
2017-08-28T04:10:56.739Z,91.64
2017-08-28T04:13:24.538Z,91.72
2017-08-28T04:15:52.532Z,91.77
2017-08-28T04:18:20.139Z,92.09
2017-08-28T04:20:47.754Z,92.04
2017-08-28T04:23:15.385Z,91.99
2017-08-28T04:25:43.000Z,91.88
2017-08-28T04:28:11.247Z,91.65
2017-08-28T04:30:38.828Z,91.69
2017-08-28T04:33:06.814Z,91.65
2017-08-28T04:35:34.427Z,91.89
2017-08-28T04:38:02.029Z,92.21
2017-08-28T04:40:29.637Z,92.10
2017-08-28T04:42:57.677Z,91.96
2017-08-28T04:45:25.282Z,92.03
2017-08-28T04:47:52.870Z,92.10
2017-08-28T04:50:20.512Z,91.83
2017-08-28T04:52:48.608Z,91.48
2017-08-28T04:55:16.221Z,91.29
2017-08-28T04:57:44.159Z,91.28
2017-08-28T05:00:11.787Z,91.11
2017-08-28T05:02:39.679Z,90.86
2017-08-28T05:05:07.310Z,90.64
2017-08-28T05:07:34.899Z,90.12
2017-08-28T05:10:02.517Z,90.06
2017-08-28T05:12:30.141Z,89.73
2017-08-28T05:14:57.776Z,89.40
2017-08-28T05:17:25.565Z,89.06
2017-08-28T05:19:53.162Z,89.07
2017-08-28T05:22:20.802Z,88.90
2017-08-28T05:24:48.404Z,89.24
2017-08-28T05:27:16.165Z,89.06
2017-08-28T05:29:44.108Z,88.76
2017-08-28T05:32:11.733Z,88.82
2017-08-28T05:34:39.323Z,88.91
2017-08-28T05:37:06.970Z,88.79
2017-08-28T05:39:34.576Z,88.93
2017-08-28T05:42:02.193Z,88.87
2017-08-28T05:44:29.796Z,89.51
2017-08-28T05:46:57.957Z,89.67
2017-08-28T05:49:25.565Z,89.54
2017-08-28T05:51:53.346Z,89.32
2017-08-28T05:54:20.958Z,88.79
2017-08-28T05:56:48.600Z,88.77
2017-08-28T05:59:16.242Z,88.88
2017-08-28T06:01:43.846Z,89.05
2017-08-28T06:04:11.485Z,89.16
2017-08-28T06:06:39.210Z,89.13
2017-08-28T06:09:07.911Z,89.24
2017-08-28T06:11:35.520Z,89.51
2017-08-28T06:14:03.265Z,89.79
2017-08-28T06:16:30.866Z,90.00
2017-08-28T06:18:58.838Z,90.13
2017-08-28T06:21:26.434Z,90.32
2017-08-28T06:23:54.087Z,90.47
2017-08-28T06:26:21.714Z,90.45
2017-08-28T06:28:49.325Z,90.82
2017-08-28T06:31:16.952Z,90.74
2017-08-28T06:33:44.579Z,90.74
2017-08-28T06:36:13.751Z,90.60
2017-08-28T06:38:41.399Z,90.99
2017-08-28T06:41:09.007Z,91.02
2017-08-28T06:43:36.660Z,90.79
2017-08-28T06:46:04.255Z,90.03
2017-08-28T06:48:31.862Z,89.62
2017-08-28T06:50:59.479Z,89.18
2017-08-28T06:53:27.131Z,88.86
2017-08-28T06:55:54.859Z,88.70
2017-08-28T06:58:22.845Z,88.24
2017-08-28T07:00:50.453Z,87.71
2017-08-28T07:03:18.407Z,87.90
2017-08-28T07:05:46.014Z,87.78
2017-08-28T07:08:13.623Z,87.12
2017-08-28T07:10:41.265Z,87.06
2017-08-28T07:13:08.886Z,86.96
2017-08-28T07:15:36.550Z,87.10
2017-08-28T07:18:04.165Z,87.91
2017-08-28T07:20:31.980Z,88.36
2017-08-28T07:22:59.614Z,88.84
2017-08-28T07:25:27.241Z,88.10
2017-08-28T07:27:54.859Z,87.62
2017-08-28T07:30:22.775Z,87.18
2017-08-28T07:32:50.389Z,86.81
2017-08-28T07:35:17.972Z,86.61
2017-08-28T07:37:45.584Z,86.79
2017-08-28T07:40:13.183Z,86.72
2017-08-28T07:42:40.821Z,87.01
2017-08-28T07:45:08.416Z,87.04
2017-08-28T07:47:36.064Z,87.07
2017-08-28T07:50:03.680Z,87.19
2017-08-28T07:52:31.323Z,86.79
2017-08-28T07:54:59.039Z,86.64
2017-08-28T07:57:26.950Z,86.76
2017-08-28T07:59:54.536Z,87.06
2017-08-28T08:02:22.151Z,86.42
2017-08-28T08:04:49.788Z,86.46
2017-08-28T08:07:17.410Z,86.03
2017-08-28T08:09:45.044Z,85.99
2017-08-28T08:12:12.639Z,85.28
2017-08-28T08:14:40.278Z,84.43
2017-08-28T08:17:07.879Z,84.86
2017-08-28T08:19:35.822Z,84.94
2017-08-28T08:22:03.556Z,84.64
2017-08-28T08:24:31.238Z,85.06
2017-08-28T08:26:58.885Z,84.39
2017-08-28T08:29:26.636Z,84.31
2017-08-28T08:31:54.268Z,83.96
2017-08-28T08:34:23.772Z,84.36
2017-08-28T08:36:51.405Z,84.97
2017-08-28T08:39:19.028Z,84.73
2017-08-28T08:41:47.033Z,84.79
2017-08-28T08:44:14.692Z,84.91
2017-08-28T08:46:42.298Z,85.28
2017-08-28T08:49:09.943Z,84.87
2017-08-28T08:51:37.571Z,84.87
2017-08-28T08:54:05.222Z,84.85
2017-08-28T08:56:32.846Z,84.75
2017-08-28T08:59:00.477Z,85.16
2017-08-28T09:01:28.067Z,85.51
2017-08-28T09:03:55.697Z,85.54
2017-08-28T09:06:23.293Z,85.53
2017-08-28T09:08:51.169Z,86.43
2017-08-28T09:11:18.773Z,85.87
2017-08-28T09:13:46.388Z,85.71
2017-08-28T09:16:14.077Z,86.20
2017-08-28T09:18:41.825Z,86.30
2017-08-28T09:21:11.013Z,86.11
2017-08-28T09:23:38.635Z,85.97
2017-08-28T09:26:06.255Z,85.93
2017-08-28T09:28:33.978Z,85.64
2017-08-28T09:31:01.913Z,85.05
2017-08-28T09:33:29.506Z,83.94
2017-08-28T09:35:57.273Z,83.56
2017-08-28T09:38:24.942Z,82.16
2017-08-28T09:40:52.642Z,83.37
2017-08-28T09:43:20.319Z,80.86
2017-08-28T09:45:47.941Z,79.62
2017-08-28T09:48:15.772Z,78.86
2017-08-28T09:50:43.392Z,78.39
2017-08-28T09:53:11.368Z,78.52
2017-08-28T09:55:38.991Z,78.08
2017-08-28T09:58:06.682Z,77.30
2017-08-28T10:00:34.497Z,77.44
2017-08-28T10:03:02.085Z,77.82
2017-08-28T10:05:29.879Z,78.16
2017-08-28T10:07:57.490Z,78.62
2017-08-28T10:10:25.145Z,78.66
2017-08-28T10:12:52.755Z,79.34
2017-08-28T10:15:20.937Z,80.79
2017-08-28T10:17:54.015Z,80.43
2017-08-28T10:20:22.030Z,80.03
2017-08-28T10:22:50.435Z,79.22
2017-08-28T10:25:18.039Z,79.14
2017-08-28T10:27:45.650Z,77.76
2017-08-28T10:30:13.248Z,77.47
2017-08-28T10:32:40.908Z,76.67
2017-08-28T10:35:08.498Z,77.74
2017-08-28T10:37:36.489Z,77.12
2017-08-28T10:40:04.086Z,75.82
2017-08-28T10:42:31.869Z,74.43
2017-08-28T10:44:59.483Z,73.03
2017-08-28T10:47:27.094Z,73.38
2017-08-28T10:49:54.741Z,73.44
2017-08-28T10:52:22.365Z,72.75
2017-08-28T10:54:52.540Z,74.00
2017-08-28T10:57:20.128Z,74.29
2017-08-28T10:59:47.704Z,71.47
2017-08-28T11:02:15.339Z,72.40
2017-08-28T11:04:42.944Z,68.55
2017-08-28T11:07:10.588Z,68.71
2017-08-28T11:09:38.235Z,68.10
2017-08-28T11:12:06.220Z,65.81
2017-08-28T11:14:33.828Z,65.70
2017-08-28T11:17:01.450Z,65.92
2017-08-28T11:19:29.059Z,67.22
2017-08-28T11:21:56.685Z,64.53
2017-08-28T11:24:24.399Z,63.17
2017-08-28T11:26:51.999Z,62.17
2017-08-28T11:29:19.617Z,62.30
2017-08-28T11:31:47.224Z,62.09
2017-08-28T11:34:15.024Z,63.74
2017-08-28T11:36:42.629Z,63.81
2017-08-28T11:39:10.620Z,63.95
2017-08-28T11:41:38.242Z,66.00
2017-08-28T11:44:05.851Z,64.74
2017-08-28T11:46:33.484Z,65.04
2017-08-28T11:49:01.111Z,64.51
2017-08-28T11:51:28.737Z,64.72
2017-08-28T11:53:56.458Z,62.42
2017-08-28T11:56:24.410Z,62.76
2017-08-28T11:58:52.212Z,62.05
2017-08-28T12:01:19.842Z,61.61
2017-08-28T12:03:47.505Z,61.78
2017-08-28T12:06:15.108Z,64.71
2017-08-28T12:08:42.751Z,64.23
2017-08-28T12:11:10.365Z,60.43
2017-08-28T12:13:37.999Z,62.31
2017-08-28T12:16:05.624Z,62.49
2017-08-28T12:18:33.658Z,61.85
2017-08-28T12:21:01.261Z,61.72
2017-08-28T12:23:28.980Z,61.16
2017-08-28T12:25:56.605Z,58.66
2017-08-28T12:28:24.248Z,58.09
2017-08-28T12:30:51.896Z,59.07
2017-08-28T12:33:19.502Z,58.38
2017-08-28T12:35:47.143Z,58.36
2017-08-28T12:38:14.731Z,60.41
2017-08-28T12:40:42.679Z,60.59
2017-08-28T12:43:10.342Z,60.13
2017-08-28T12:45:37.954Z,59.82
2017-08-28T12:48:05.590Z,58.36
2017-08-28T12:50:33.214Z,59.26
2017-08-28T12:53:00.984Z,58.44
2017-08-28T12:55:28.574Z,57.16
2017-08-28T12:57:56.529Z,58.45
2017-08-28T13:00:24.203Z,57.72
2017-08-28T13:02:51.827Z,57.81
2017-08-28T13:05:19.464Z,56.86
2017-08-28T13:07:47.057Z,57.91
2017-08-28T13:10:14.841Z,58.17
2017-08-28T13:12:42.436Z,57.33
2017-08-28T13:15:10.050Z,58.53
2017-08-28T13:17:37.636Z,58.32
2017-08-28T13:20:05.271Z,58.42
2017-08-28T13:22:32.873Z,57.05
2017-08-28T13:25:00.745Z,56.34
2017-08-28T13:27:28.339Z,56.78
2017-08-28T13:29:55.952Z,54.73
2017-08-28T13:32:23.603Z,55.27
2017-08-28T13:34:51.196Z,56.61
2017-08-28T13:37:18.865Z,53.16
2017-08-28T13:39:46.823Z,52.68
2017-08-28T13:42:14.421Z,52.95
2017-08-28T13:44:42.012Z,55.12
2017-08-28T13:47:09.638Z,52.03
2017-08-28T13:49:37.268Z,53.72
2017-08-28T13:52:04.860Z,49.43
2017-08-28T13:54:32.503Z,54.92
2017-08-28T13:57:00.328Z,52.36
2017-08-28T13:59:28.227Z,51.20
2017-08-28T14:01:55.975Z,52.95
2017-08-28T14:04:23.566Z,50.60
2017-08-28T14:06:51.182Z,54.21
2017-08-28T14:09:18.870Z,50.42
2017-08-28T14:11:46.534Z,49.02
2017-08-28T14:14:14.127Z,50.60
2017-08-28T14:16:42.032Z,47.98
2017-08-28T14:19:10.550Z,49.08
2017-08-28T14:21:38.153Z,51.62
2017-08-28T14:24:05.782Z,48.83
2017-08-28T14:26:33.515Z,48.20
2017-08-28T14:29:01.137Z,47.78
2017-08-28T14:31:28.768Z,49.62
2017-08-28T14:33:56.818Z,49.79
2017-08-28T14:36:24.420Z,49.48
2017-08-28T14:38:52.142Z,50.70
2017-08-28T14:41:19.779Z,49.98
2017-08-28T14:43:47.489Z,48.73
2017-08-28T14:46:15.227Z,47.54
2017-08-28T14:48:42.836Z,44.47
2017-08-28T14:51:10.479Z,46.10
2017-08-28T14:53:38.069Z,45.12
2017-08-28T14:56:05.688Z,45.16
2017-08-28T14:58:33.288Z,44.43
2017-08-28T15:01:01.247Z,44.36
2017-08-28T15:03:29.073Z,43.92
2017-08-28T15:05:56.672Z,43.67
2017-08-28T15:08:24.293Z,41.78
2017-08-28T15:10:51.874Z,42.18
2017-08-28T15:13:19.495Z,43.35
2017-08-28T15:15:47.101Z,44.58
2017-08-28T15:18:14.712Z,46.97
2017-08-28T15:20:42.522Z,48.76
2017-08-28T15:23:10.450Z,47.85
2017-08-28T15:25:38.184Z,49.16
2017-08-28T15:28:05.797Z,46.97
2017-08-28T15:30:33.454Z,48.65
2017-08-28T15:33:01.047Z,49.79
2017-08-28T15:35:29.275Z,48.94
2017-08-28T15:37:56.902Z,47.17
2017-08-28T15:40:24.807Z,46.52
2017-08-28T15:42:52.478Z,47.76
2017-08-28T15:45:20.077Z,47.29
2017-08-28T15:47:47.717Z,47.65
2017-08-28T15:50:15.313Z,46.87
2017-08-28T15:52:42.933Z,46.92
2017-08-28T15:55:10.530Z,49.48
2017-08-28T15:57:38.204Z,49.63
2017-08-28T16:00:05.796Z,49.49
2017-08-28T16:02:33.709Z,49.70
2017-08-28T16:05:01.301Z,49.88
2017-08-28T16:07:29.013Z,50.08
2017-08-28T16:09:56.640Z,49.77
2017-08-28T16:12:24.237Z,51.09
2017-08-28T16:14:51.882Z,51.61
2017-08-28T16:17:19.491Z,52.27
2017-08-28T16:19:47.501Z,52.97
2017-08-28T16:22:15.083Z,53.63
2017-08-28T16:24:44.029Z,52.43
2017-08-28T16:27:11.701Z,52.66
2017-08-28T16:29:39.328Z,51.96
2017-08-28T16:32:06.930Z,52.98
2017-08-28T16:34:34.538Z,52.70
2017-08-28T16:37:02.222Z,53.65
2017-08-28T16:39:29.836Z,53.78
2017-08-28T16:41:57.783Z,53.65
2017-08-28T16:44:25.480Z,53.70
2017-08-28T16:46:53.332Z,54.02
2017-08-28T16:49:20.959Z,54.49
2017-08-28T16:51:48.577Z,54.57
2017-08-28T16:54:16.161Z,54.47
2017-08-28T16:56:43.781Z,54.35
2017-08-28T16:59:11.402Z,54.54
2017-08-28T17:01:39.023Z,54.27
2017-08-28T17:04:06.953Z,55.08
2017-08-28T17:06:34.666Z,55.38
2017-08-28T17:09:02.269Z,55.55
2017-08-28T17:11:29.879Z,56.12
2017-08-28T17:13:57.625Z,56.44
2017-08-28T17:16:25.320Z,55.93
2017-08-28T17:18:52.973Z,56.37
2017-08-28T17:21:20.903Z,56.79
2017-08-28T17:23:54.325Z,56.82
2017-08-28T17:26:22.269Z,57.10
2017-08-28T17:28:49.890Z,57.08
2017-08-28T17:31:17.508Z,57.43
2017-08-28T17:33:45.324Z,57.73
2017-08-28T17:36:12.913Z,57.91
2017-08-28T17:38:40.602Z,58.57
2017-08-28T17:41:08.260Z,59.07
2017-08-28T17:43:35.906Z,59.25
2017-08-28T17:46:03.492Z,59.56
2017-08-28T17:48:31.159Z,59.64
2017-08-28T17:50:58.781Z,60.57
2017-08-28T17:53:26.393Z,61.55
2017-08-28T17:55:54.074Z,62.14
2017-08-28T17:58:21.698Z,62.89
2017-08-28T18:00:50.228Z,62.78
2017-08-28T18:03:17.963Z,63.11
2017-08-28T18:05:45.655Z,64.65
2017-08-28T18:08:13.280Z,64.39
2017-08-28T18:10:41.237Z,64.62
2017-08-28T18:13:08.852Z,65.30
2017-08-28T18:15:36.508Z,65.90
2017-08-28T18:18:04.130Z,66.46
2017-08-28T18:20:31.770Z,67.03
2017-08-28T18:22:59.416Z,67.51
2017-08-28T18:25:27.168Z,67.78
2017-08-28T18:27:55.216Z,68.90
2017-08-28T18:30:22.842Z,69.19
2017-08-28T18:32:50.660Z,69.16
2017-08-28T18:35:18.321Z,70.12
2017-08-28T18:37:46.041Z,70.92
2017-08-28T18:40:13.675Z,70.91
2017-08-28T18:42:41.339Z,71.19
2017-08-28T18:45:08.984Z,71.55
2017-08-28T18:47:36.606Z,71.27
2017-08-28T18:50:04.607Z,71.52
2017-08-28T18:52:32.242Z,72.47
2017-08-28T18:54:59.878Z,72.49
2017-08-28T18:57:27.508Z,72.71
2017-08-28T18:59:55.518Z,73.03
2017-08-28T19:02:23.113Z,72.95
2017-08-28T19:04:50.780Z,73.34
2017-08-28T19:07:18.546Z,73.94
2017-08-28T19:09:46.285Z,74.43
2017-08-28T19:12:13.927Z,74.44
2017-08-28T19:14:41.543Z,75.02
2017-08-28T19:17:09.178Z,75.33
2017-08-28T19:19:37.071Z,75.24
2017-08-28T19:22:04.837Z,75.67
2017-08-28T19:24:32.432Z,75.70
2017-08-28T19:27:00.061Z,76.04
2017-08-28T19:29:27.657Z,75.63
2017-08-28T19:31:56.208Z,75.39
2017-08-28T19:34:38.589Z,75.49
2017-08-28T19:37:06.754Z,76.00
2017-08-28T19:39:34.354Z,76.13
2017-08-28T19:42:02.106Z,76.38
2017-08-28T19:44:29.836Z,76.39
2017-08-28T19:46:57.473Z,76.96
2017-08-28T19:49:25.103Z,77.72
2017-08-28T19:51:52.704Z,77.85
2017-08-28T19:54:20.654Z,77.83
2017-08-28T19:56:48.639Z,77.75
2017-08-28T19:59:16.403Z,77.84
2017-08-28T20:01:44.044Z,78.18
2017-08-28T20:04:11.652Z,78.12
2017-08-28T20:06:39.318Z,78.41
2017-08-28T20:09:06.920Z,78.59
2017-08-28T20:11:34.531Z,78.62
2017-08-28T20:14:02.174Z,78.37
2017-08-28T20:16:29.802Z,78.53
2017-08-28T20:18:57.511Z,78.73
2017-08-28T20:21:25.458Z,78.72
2017-08-28T20:23:53.107Z,78.88
2017-08-28T20:26:20.821Z,79.40
2017-08-28T20:28:48.457Z,79.19
2017-08-28T20:31:16.082Z,79.51
2017-08-28T20:33:43.709Z,79.92
2017-08-28T20:36:11.308Z,80.06
2017-08-28T20:38:38.926Z,80.11
2017-08-28T20:41:06.669Z,80.31
2017-08-28T20:43:34.593Z,80.44
2017-08-28T20:46:02.195Z,80.39
2017-08-28T20:48:30.144Z,80.68
2017-08-28T20:50:57.883Z,81.03
2017-08-28T20:53:25.611Z,81.47
2017-08-28T20:55:53.251Z,81.43
2017-08-28T20:58:20.872Z,81.43
2017-08-28T21:00:48.538Z,81.21
2017-08-28T21:03:16.162Z,81.54
2017-08-28T21:05:44.105Z,81.41
2017-08-28T21:08:11.727Z,81.11
2017-08-28T21:10:39.365Z,81.46
2017-08-28T21:13:07.006Z,81.46
2017-08-28T21:15:34.604Z,81.96
2017-08-28T21:18:02.244Z,81.57
2017-08-28T21:20:29.855Z,81.89
2017-08-28T21:22:57.827Z,81.69
2017-08-28T21:25:25.521Z,81.80
2017-08-28T21:27:53.180Z,82.08
2017-08-28T21:30:20.792Z,82.11
2017-08-28T21:32:48.834Z,81.94
2017-08-28T21:35:16.857Z,81.91
2017-08-28T21:37:44.503Z,81.59
2017-08-28T21:40:12.148Z,81.39
2017-08-28T21:42:39.760Z,81.77
2017-08-28T21:45:07.381Z,81.65
2017-08-28T21:47:34.986Z,81.48
2017-08-28T21:50:02.962Z,81.60
2017-08-28T21:52:30.589Z,81.60
2017-08-28T21:54:58.355Z,81.61
2017-08-28T21:57:25.995Z,81.62
2017-08-28T21:59:53.604Z,82.02
2017-08-28T22:02:21.288Z,81.59
2017-08-28T22:04:48.875Z,82.30
2017-08-28T22:07:16.497Z,82.17
2017-08-28T22:09:44.113Z,82.51
2017-08-28T22:12:11.824Z,82.37
2017-08-28T22:14:39.433Z,82.35
2017-08-28T22:17:07.045Z,82.04
2017-08-28T22:19:34.633Z,82.45
2017-08-28T22:22:02.369Z,82.30
2017-08-28T22:24:30.163Z,82.65
2017-08-28T22:26:57.757Z,82.58
2017-08-28T22:29:25.385Z,82.59
2017-08-28T22:31:52.981Z,82.80
2017-08-28T22:34:20.684Z,83.08
2017-08-28T22:36:48.398Z,83.14
2017-08-28T22:39:16.490Z,83.37
2017-08-28T22:41:44.115Z,83.52
2017-08-28T22:44:11.713Z,83.97
2017-08-28T22:46:39.338Z,84.09
2017-08-28T22:49:06.946Z,83.87
2017-08-28T22:51:34.574Z,84.16
2017-08-28T22:54:02.197Z,84.04
2017-08-28T22:56:29.830Z,84.25
2017-08-28T22:58:57.451Z,84.21
2017-08-28T23:01:26.056Z,84.44
2017-08-28T23:03:53.668Z,84.39
2017-08-28T23:06:21.277Z,84.18
2017-08-28T23:08:48.893Z,84.06
2017-08-28T23:11:16.823Z,84.22
2017-08-28T23:13:44.444Z,83.94
2017-08-28T23:16:12.166Z,84.01
2017-08-28T23:18:39.928Z,83.87
2017-08-28T23:21:07.692Z,83.42
2017-08-28T23:23:35.331Z,83.24
2017-08-28T23:26:02.949Z,83.65
2017-08-28T23:28:30.567Z,83.22
2017-08-28T23:30:58.150Z,83.24
2017-08-28T23:33:25.769Z,83.59
2017-08-28T23:35:53.402Z,84.00
2017-08-28T23:38:20.984Z,84.17
2017-08-28T23:40:48.621Z,84.06
2017-08-28T23:43:16.254Z,83.94
2017-08-28T23:45:43.839Z,84.11
2017-08-28T23:48:11.441Z,83.79
2017-08-28T23:50:39.048Z,83.55
2017-08-28T23:53:06.648Z,83.45
2017-08-28T23:55:34.318Z,83.68
2017-08-28T23:58:01.923Z,84.67
